Time;durP1;ratioP1;P1;durP2;ratioP2;P2;SDS_P1;SDS_P2;PMS_P1;PMS_P2;Temp;Humidity;BMP_temperature;BMP_pressure;BME280_temperature;BME280_humidity;BME280_pressure;Samples;Min_cycle;Max_cycle;Signal;HPM_P1;HPM_P2
2024/01/04 00:01:14;;;;;;;3.50;0.57;;;5.30;88.10;;;;;;4989837;28;20046;-46
2024/01/04 00:03:41;;;;;;;3.05;0.68;;;5.30;88.20;;;;;;4990754;28;20098;-46
2024/01/04 00:06:08;;;;;;;3.63;0.68;;;5.30;88.20;;;;;;4990734;28;20094;-46
2024/01/04 00:08:35;;;;;;;1.48;0.60;;;5.30;88.20;;;;;;4990656;28;20026;-47
2024/01/04 00:11:07;;;;;;;3.20;0.60;;;5.20;87.90;;;;;;4990743;28;20031;-46
2024/01/04 00:13:34;;;;;;;2.17;0.68;;;5.30;87.90;;;;;;5002627;28;20086;-46
2024/01/04 00:16:02;;;;;;;2.33;0.68;;;5.20;88.00;;;;;;5007495;28;20033;-46
2024/01/04 00:18:29;;;;;;;4.90;0.90;;;5.20;88.30;;;;;;4990526;28;20018;-46
2024/01/04 00:20:56;;;;;;;3.08;0.90;;;5.20;88.30;;;;;;4990444;28;20030;-46
2024/01/04 00:23:23;;;;;;;3.47;0.80;;;5.20;88.40;;;;;;4990240;28;20034;-46
2024/01/04 00:25:49;;;;;;;2.13;0.80;;;5.20;88.60;;;;;;4995927;28;20029;-47
2024/01/04 00:28:16;;;;;;;1.90;0.60;;;5.20;88.80;;;;;;5010014;28;20102;-46
2024/01/04 00:30:43;;;;;;;1.70;0.60;;;5.20;89.10;;;;;;5010136;28;20026;-46
2024/01/04 00:33:11;;;;;;;3.03;0.52;;;5.10;88.70;;;;;;5001747;28;20038;-46
2024/01/04 00:35:38;;;;;;;4.43;0.95;;;5.10;88.60;;;;;;4990416;28;20125;-46
2024/01/04 00:38:05;;;;;;;4.13;1.15;;;5.10;88.40;;;;;;5020921;28;20233;-46
2024/01/04 00:40:33;;;;;;;1.80;0.43;;;5.10;88.30;;;;;;5112773;28;20039;-45
2024/01/04 00:43:00;;;;;;;1.33;0.43;;;5.10;88.00;;;;;;4996229;28;20042;-46
2024/01/04 00:45:25;;;;;;;2.15;0.73;;;5.10;88.60;;;;;;4989342;28;20168;-46
2024/01/04 00:47:54;;;;;;;3.30;0.68;;;5.00;89.80;;;;;;4990246;28;20137;-46
2024/01/04 00:50:21;;;;;;;5.87;0.70;;;4.90;90.80;;;;;;4990119;28;20192;-45
2024/01/04 00:52:48;;;;;;;3.58;0.57;;;4.80;91.50;;;;;;4990182;28;20661;-45
2024/01/04 00:55:14;;;;;;;1.40;0.47;;;4.70;91.80;;;;;;4990199;28;20049;-44
2024/01/04 00:57:42;;;;;;;1.75;0.60;;;4.60;91.90;;;;;;4990224;28;20400;-43
2024/01/04 01:00:09;;;;;;;4.00;0.90;;;4.60;92.30;;;;;;4990089;28;20344;-44
2024/01/04 01:02:39;;;;;;;3.88;0.80;;;4.60;92.50;;;;;;4989932;28;20045;-46
2024/01/04 01:05:07;;;;;;;2.25;0.80;;;4.50;92.70;;;;;;4990037;28;20096;-43
2024/01/04 01:07:36;;;;;;;3.28;0.90;;;4.50;92.80;;;;;;4989793;28;20034;-43
2024/01/04 01:10:03;;;;;;;3.42;0.80;;;4.50;92.90;;;;;;5000268;28;20455;-45
2024/01/04 01:12:30;;;;;;;3.92;0.85;;;4.40;92.80;;;;;;5009478;28;20037;-45
2024/01/04 01:14:55;;;;;;;3.42;0.80;;;4.40;92.90;;;;;;5009445;28;20109;-43
2024/01/04 01:17:22;;;;;;;4.28;0.82;;;4.40;92.90;;;;;;4996352;28;20164;-45
2024/01/04 01:19:49;;;;;;;7.35;0.77;;;4.40;93.00;;;;;;4989654;28;20041;-43
2024/01/04 01:22:16;;;;;;;2.58;0.73;;;4.40;92.90;;;;;;4989658;28;20069;-43
2024/01/04 01:24:41;;;;;;;2.40;0.63;;;4.40;92.80;;;;;;4989752;28;20422;-43
2024/01/04 01:27:07;;;;;;;2.15;0.70;;;4.40;92.50;;;;;;4990034;28;20094;-43
2024/01/04 01:29:33;;;;;;;3.88;0.80;;;4.30;92.10;;;;;;4988297;28;20026;-46
2024/01/04 01:32:00;;;;;;;4.00;0.75;;;4.30;91.90;;;;;;4989023;28;20026;-44
2024/01/04 01:34:27;;;;;;;7.28;1.30;;;4.40;91.90;;;;;;4989152;28;20030;-45
2024/01/04 01:36:55;;;;;;;4.20;1.23;;;4.20;91.60;;;;;;4989432;28;20022;-42
2024/01/04 01:39:22;;;;;;;1.90;0.73;;;4.20;91.50;;;;;;5006069;28;20041;-44
2024/01/04 01:41:51;;;;;;;6.53;0.88;;;4.20;91.50;;;;;;5008728;28;20065;-44
2024/01/04 01:44:21;;;;;;;2.60;0.70;;;4.30;91.40;;;;;;4995242;28;20034;-43
2024/01/04 01:46:48;;;;;;;8.15;0.90;;;4.20;91.10;;;;;;4988484;28;20450;-44
2024/01/04 01:49:16;;;;;;;6.60;1.05;;;4.20;91.10;;;;;;4988505;28;20414;-46
2024/01/04 01:51:43;;;;;;;3.15;0.73;;;4.10;90.90;;;;;;5004225;28;20038;-44
2024/01/04 01:54:10;;;;;;;2.67;0.82;;;4.10;90.90;;;;;;5008994;28;20030;-46
2024/01/04 01:56:37;;;;;;;2.58;0.70;;;4.00;90.70;;;;;;5010014;28;20420;-44
2024/01/04 01:59:05;;;;;;;3.30;0.50;;;4.00;90.60;;;;;;5007920;28;20456;-44
2024/01/04 02:01:31;;;;;;;2.22;0.63;;;3.90;90.40;;;;;;4992820;28;20431;-43
2024/01/04 02:03:58;;;;;;;1.73;0.77;;;3.90;90.00;;;;;;4992599;28;20102;-44
2024/01/04 02:06:25;;;;;;;2.72;0.75;;;3.90;89.50;;;;;;4991262;28;20486;-45
2024/01/04 02:08:52;;;;;;;2.75;0.63;;;3.90;89.30;;;;;;4992628;28;20092;-43
2024/01/04 02:11:22;;;;;;;5.68;0.95;;;3.90;89.40;;;;;;4992435;28;20088;-45
2024/01/04 02:13:49;;;;;;;4.18;0.95;;;3.90;89.50;;;;;;4992765;28;20519;-45
2024/01/04 02:16:16;;;;;;;3.55;0.63;;;3.90;89.80;;;;;;4992366;28;20057;-45
2024/01/04 02:18:43;;;;;;;2.38;0.60;;;3.90;89.90;;;;;;4992073;28;20137;-44
2024/01/04 02:21:10;;;;;;;6.22;2.58;;;3.90;89.90;;;;;;4992348;28;20037;-45
2024/01/04 02:23:37;;;;;;;5.63;0.73;;;3.90;89.70;;;;;;4992147;28;20405;-44
2024/01/04 02:26:03;;;;;;;3.33;1.02;;;3.80;89.80;;;;;;4997938;28;20030;-47
2024/01/04 02:28:30;;;;;;;3.63;1.02;;;3.80;90.10;;;;;;5011901;28;20037;-45
2024/01/04 02:30:57;;;;;;;5.22;0.90;;;3.80;90.40;;;;;;5010816;28;20040;-44
2024/01/04 02:33:24;;;;;;;5.28;1.05;;;3.80;90.30;;;;;;5006183;28;20485;-47
2024/01/04 02:35:51;;;;;;;6.47;1.40;;;3.80;90.20;;;;;;4992293;28;20022;-44
2024/01/04 02:38:17;;;;;;;7.63;0.80;;;3.80;90.30;;;;;;5034517;28;20148;-44
2024/01/04 02:40:43;;;;;;;8.00;0.85;;;3.80;90.20;;;;;;5035451;28;20042;-47
2024/01/04 02:43:09;;;;;;;5.32;0.47;;;3.70;89.90;;;;;;4991988;28;20042;-44
2024/01/04 02:45:37;;;;;;;4.22;1.10;;;3.80;89.80;;;;;;4992078;28;20455;-46
2024/01/04 02:48:04;;;;;;;2.50;0.60;;;3.70;89.60;;;;;;4992009;28;20042;-49
2024/01/04 02:50:31;;;;;;;9.18;1.70;;;3.70;89.60;;;;;;4992061;28;20086;-44
2024/01/04 02:52:58;;;;;;;3.55;0.75;;;3.80;89.60;;;;;;4991989;28;20026;-46
2024/01/04 02:55:25;;;;;;;2.67;0.80;;;3.70;89.30;;;;;;4991804;28;20083;-46
2024/01/04 02:57:52;;;;;;;3.08;0.90;;;3.70;89.20;;;;;;5011209;28;20022;-46
2024/01/04 03:00:19;;;;;;;3.13;0.57;;;3.70;89.20;;;;;;5010468;28;20030;-44
2024/01/04 03:02:45;;;;;;;3.50;0.70;;;3.70;89.00;;;;;;5011219;28;20060;-46
2024/01/04 03:05:12;;;;;;;2.45;0.60;;;3.70;88.90;;;;;;4993812;28;20030;-45
2024/01/04 03:07:39;;;;;;;3.90;0.70;;;3.70;89.10;;;;;;4991254;28;20022;-45
2024/01/04 03:10:06;;;;;;;2.03;0.55;;;3.70;89.40;;;;;;4990447;28;20518;-45
2024/01/04 03:12:33;;;;;;;2.35;0.80;;;3.70;89.80;;;;;;4991277;28;20081;-45
2024/01/04 03:14:59;;;;;;;2.80;0.80;;;3.70;89.90;;;;;;4989741;28;20122;-48
2024/01/04 03:17:29;;;;;;;1.52;0.60;;;3.70;89.80;;;;;;4991240;28;20031;-45
2024/01/04 03:19:58;;;;;;;1.20;0.60;;;3.60;89.90;;;;;;4991359;28;20443;-46
2024/01/04 03:22:25;;;;;;;5.35;1.00;;;3.60;89.70;;;;;;5002162;28;20041;-47
2024/01/04 03:24:52;;;;;;;3.17;0.90;;;3.60;89.90;;;;;;5010901;28;20459;-48
2024/01/04 03:27:19;;;;;;;4.85;1.60;;;3.60;90.00;;;;;;5010990;28;20113;-48
2024/01/04 03:29:44;;;;;;;3.72;1.08;;;3.50;89.80;;;;;;5003531;28;20126;-45
2024/01/04 03:32:12;;;;;;;4.10;0.82;;;3.40;89.70;;;;;;4990023;28;20034;-48
2024/01/04 03:34:39;;;;;;;2.67;1.13;;;3.40;89.80;;;;;;4991255;28;20023;-46
2024/01/04 03:37:05;;;;;;;3.33;0.55;;;3.40;90.00;;;;;;4991303;28;20034;-46
2024/01/04 03:39:33;;;;;;;3.03;0.65;;;3.40;90.00;;;;;;5016915;28;20026;-48
2024/01/04 03:41:59;;;;;;;3.78;0.70;;;3.30;90.10;;;;;;4990844;28;20382;-45
2024/01/04 03:44:26;;;;;;;2.70;0.70;;;3.30;90.20;;;;;;4989843;28;20474;-44
2024/01/04 03:46:53;;;;;;;6.85;0.82;;;3.30;90.40;;;;;;5003150;28;20042;-45
2024/01/04 03:49:20;;;;;;;2.13;0.80;;;3.20;90.70;;;;;;5010576;28;20029;-44
2024/01/04 03:51:45;;;;;;;6.50;1.10;;;3.20;91.10;;;;;;5000070;28;20141;-44
2024/01/04 03:54:12;;;;;;;6.25;1.05;;;3.20;91.10;;;;;;4989458;28;20117;-47
2024/01/04 03:56:40;;;;;;;4.45;0.90;;;3.20;91.00;;;;;;4990466;28;20181;-44
2024/01/04 03:59:06;;;;;;;3.42;0.68;;;3.00;91.20;;;;;;4990661;28;20030;-44
2024/01/04 04:01:33;;;;;;;4.80;0.80;;;3.00;91.60;;;;;;4989974;28;20046;-44
2024/01/04 04:03:59;;;;;;;5.03;1.33;;;3.10;91.80;;;;;;4990315;28;20037;-44
2024/01/04 04:06:25;;;;;;;4.00;0.65;;;3.10;91.80;;;;;;4990310;28;20390;-44
2024/01/04 04:08:56;;;;;;;2.50;0.70;;;3.00;91.60;;;;;;4990105;28;20034;-44
2024/01/04 04:11:22;;;;;;;2.63;0.80;;;2.90;91.60;;;;;;4990920;28;20058;-45
2024/01/04 04:13:48;;;;;;;3.38;0.68;;;2.90;91.70;;;;;;4990838;28;20402;-44
2024/01/04 04:16:15;;;;;;;3.53;0.80;;;2.90;91.90;;;;;;4990744;28;20034;-43
2024/01/04 04:18:42;;;;;;;3.60;0.70;;;3.00;91.80;;;;;;4990418;28;20079;-43
2024/01/04 04:21:20;;;;;;;2.35;0.82;;;2.90;91.60;;;;;;4989632;28;20504;-44
2024/01/04 04:23:51;;;;;;;1.73;0.63;;;2.90;91.50;;;;;;4990419;28;20038;-44
2024/01/04 04:26:22;;;;;;;2.22;0.80;;;2.90;91.60;;;;;;4990237;28;20026;-44
2024/01/04 04:28:49;;;;;;;6.70;0.93;;;2.90;91.60;;;;;;4990150;28;20095;-45
2024/01/04 04:31:17;;;;;;;4.38;0.80;;;2.90;91.60;;;;;;4990278;28;20022;-43
2024/01/04 04:33:47;;;;;;;3.83;0.82;;;2.90;91.60;;;;;;4989593;28;20034;-45
2024/01/04 04:36:14;;;;;;;2.53;0.60;;;2.90;91.70;;;;;;4990091;28;20030;-45
2024/01/04 04:38:41;;;;;;;5.00;1.00;;;2.90;91.80;;;;;;5051252;28;20068;-43
2024/01/04 04:41:11;;;;;;;2.80;0.70;;;2.80;91.70;;;;;;5018483;28;20069;-43
2024/01/04 04:43:37;;;;;;;3.90;0.70;;;2.80;91.80;;;;;;4990305;28;20022;-43
2024/01/04 04:46:09;;;;;;;2.63;0.73;;;2.80;91.70;;;;;;4990572;28;20446;-44
2024/01/04 04:48:36;;;;;;;3.03;0.73;;;2.70;91.60;;;;;;4990022;28;20113;-43
2024/01/04 04:51:03;;;;;;;3.28;1.02;;;2.60;91.50;;;;;;4989141;28;20039;-44
2024/01/04 04:53:30;;;;;;;3.45;0.60;;;2.70;91.50;;;;;;4990259;28;20022;-43
2024/01/04 04:56:00;;;;;;;6.55;1.27;;;2.60;91.70;;;;;;4990283;28;20087;-44
2024/01/04 04:58:27;;;;;;;3.33;0.65;;;2.60;91.60;;;;;;4990047;28;20107;-43
2024/01/04 05:00:57;;;;;;;2.75;0.73;;;2.60;91.70;;;;;;4989732;28;20031;-42
2024/01/04 05:03:25;;;;;;;0.70;0.40;;;2.60;91.80;;;;;;4989000;28;20049;-43
2024/01/04 05:05:52;;;;;;;2.50;0.95;;;2.60;91.80;;;;;;4989786;28;20027;-42
2024/01/04 05:08:22;;;;;;;5.55;1.23;;;2.60;91.80;;;;;;4989939;28;20046;-46
2024/01/04 05:10:49;;;;;;;4.07;0.80;;;2.60;91.60;;;;;;4990135;28;20507;-43
2024/01/04 05:13:18;;;;;;;3.75;0.75;;;2.60;91.70;;;;;;4990018;28;20030;-42
2024/01/04 05:15:45;;;;;;;5.70;2.13;;;2.70;91.90;;;;;;4989822;28;20106;-43
2024/01/04 05:18:12;;;;;;;3.65;0.88;;;2.60;91.70;;;;;;4989796;28;20057;-48
2024/01/04 05:20:38;;;;;;;3.30;0.80;;;2.60;91.70;;;;;;4989903;28;20053;-43
2024/01/04 05:23:06;;;;;;;1.45;0.60;;;2.60;91.70;;;;;;4988993;28;20050;-43
2024/01/04 05:25:34;;;;;;;4.03;0.77;;;2.50;91.80;;;;;;4990031;28;20080;-45
2024/01/04 05:28:00;;;;;;;1.63;0.80;;;2.50;91.70;;;;;;4988553;28;20035;-44
2024/01/04 05:30:28;;;;;;;3.72;0.80;;;2.50;91.90;;;;;;4988671;28;20109;-43
2024/01/04 05:32:55;;;;;;;4.95;0.82;;;2.50;91.80;;;;;;4992971;28;20034;-45
2024/01/04 05:35:22;;;;;;;2.88;0.70;;;2.50;91.80;;;;;;4992944;28;20030;-44
2024/01/04 05:37:49;;;;;;;4.60;0.88;;;2.50;91.80;;;;;;5011014;28;20371;-47
2024/01/04 05:40:16;;;;;;;2.05;0.82;;;2.50;91.70;;;;;;5105026;28;20102;-44
2024/01/04 05:42:44;;;;;;;2.50;1.02;;;2.40;91.80;;;;;;4992727;28;20076;-46
2024/01/04 05:45:10;;;;;;;4.90;1.00;;;2.50;91.90;;;;;;4993038;28;20430;-45
2024/01/04 05:47:37;;;;;;;4.70;0.82;;;2.40;91.90;;;;;;4992934;28;20054;-45
2024/01/04 05:50:05;;;;;;;3.15;0.82;;;2.40;92.20;;;;;;5005520;28;20029;-46
2024/01/04 05:52:31;;;;;;;3.97;0.77;;;2.50;92.10;;;;;;5012398;28;20109;-44
2024/01/04 05:54:58;;;;;;;2.72;0.80;;;2.40;92.00;;;;;;5011491;28;20525;-46
2024/01/04 05:57:28;;;;;;;2.15;0.70;;;2.40;92.10;;;;;;4991742;28;20406;-48
2024/01/04 05:59:57;;;;;;;3.58;0.73;;;2.40;92.20;;;;;;4996786;28;20504;-46
2024/01/04 06:02:26;;;;;;;3.03;0.90;;;2.40;92.20;;;;;;5012425;28;20588;-46
2024/01/04 06:04:53;;;;;;;6.53;1.15;;;2.40;92.20;;;;;;5006007;28;20080;-47
2024/01/04 06:07:21;;;;;;;2.67;0.70;;;2.40;92.20;;;;;;4992909;28;20034;-45
2024/01/04 06:09:49;;;;;;;3.45;1.00;;;2.40;92.20;;;;;;5001170;28;20083;-47
2024/01/04 06:12:15;;;;;;;2.75;1.10;;;2.40;92.20;;;;;;5012357;28;20437;-46
2024/01/04 06:14:41;;;;;;;5.10;1.40;;;2.40;92.20;;;;;;5012102;28;20044;-45
2024/01/04 06:17:09;;;;;;;3.78;1.10;;;2.40;92.20;;;;;;5011048;28;20030;-45
2024/01/04 06:19:39;;;;;;;4.80;1.20;;;2.40;92.20;;;;;;4997324;28;20110;-46
2024/01/04 06:22:05;;;;;;;2.03;0.95;;;2.40;92.20;;;;;;4992358;28;20061;-47
2024/01/04 06:24:32;;;;;;;3.80;1.00;;;2.40;92.10;;;;;;4991336;28;20451;-44
2024/01/04 06:26:59;;;;;;;2.47;0.93;;;2.40;92.10;;;;;;4991989;28;20143;-45
2024/01/04 06:29:25;;;;;;;3.33;0.88;;;2.30;91.90;;;;;;4991965;28;20101;-48
2024/01/04 06:31:51;;;;;;;3.92;0.65;;;2.30;91.80;;;;;;4992131;28;20075;-45
2024/01/04 06:34:20;;;;;;;5.75;1.00;;;2.30;91.70;;;;;;4991839;28;20135;-48
2024/01/04 06:36:48;;;;;;;5.57;1.25;;;2.30;91.50;;;;;;4991927;28;20058;-47
2024/01/04 06:39:14;;;;;;;5.05;0.70;;;2.30;91.30;;;;;;5083061;28;20051;-48
2024/01/04 06:41:46;;;;;;;4.50;1.15;;;2.30;91.40;;;;;;5115215;28;20056;-50
2024/01/04 06:44:13;;;;;;;4.05;0.98;;;2.30;91.40;;;;;;5114316;28;20039;-45
2024/01/04 06:46:39;;;;;;;5.40;1.00;;;2.40;91.50;;;;;;5093206;28;20019;-46
2024/01/04 06:49:08;;;;;;;4.15;1.23;;;2.30;91.50;;;;;;4991987;28;20054;-46
2024/01/04 06:51:37;;;;;;;4.32;1.65;;;2.40;91.60;;;;;;4992042;28;20321;-48
2024/01/04 06:54:05;;;;;;;3.50;1.38;;;2.30;91.70;;;;;;4991736;28;20022;-44
2024/01/04 06:56:34;;;;;;;4.95;1.85;;;2.40;91.80;;;;;;4991176;28;20022;-45
2024/01/04 06:59:04;;;;;;;2.22;1.20;;;2.40;91.80;;;;;;4990015;28;20050;-48
2024/01/04 07:01:30;;;;;;;2.00;0.63;;;2.30;91.50;;;;;;4990778;28;20073;-44
2024/01/04 07:03:58;;;;;;;9.77;1.30;;;2.20;91.40;;;;;;4990846;28;20042;-46
2024/01/04 07:06:24;;;;;;;7.70;1.65;;;2.30;91.40;;;;;;4990970;28;20033;-46
2024/01/04 07:08:49;;;;;;;3.72;1.30;;;2.20;91.60;;;;;;4999911;28;20052;-47
2024/01/04 07:11:18;;;;;;;2.53;1.00;;;2.20;91.50;;;;;;5010265;28;20371;-46
2024/01/04 07:13:45;;;;;;;4.95;0.90;;;2.20;91.50;;;;;;5010674;28;20070;-46
2024/01/04 07:16:12;;;;;;;4.97;1.70;;;2.20;91.60;;;;;;5010598;28;20045;-46
2024/01/04 07:18:39;;;;;;;5.65;1.08;;;2.30;91.70;;;;;;4993772;28;20046;-47
2024/01/04 07:21:06;;;;;;;4.18;1.25;;;2.20;91.40;;;;;;4991000;28;20057;-45
2024/01/04 07:23:33;;;;;;;3.83;1.13;;;2.20;91.30;;;;;;4990908;28;20038;-49
2024/01/04 07:26:00;;;;;;;2.45;0.80;;;2.20;91.40;;;;;;4990952;28;20105;-49
2024/01/04 07:28:27;;;;;;;2.60;1.02;;;2.20;91.30;;;;;;4990593;28;20026;-51
2024/01/04 07:30:53;;;;;;;3.47;0.90;;;2.20;91.20;;;;;;4991080;28;20035;-48
2024/01/04 07:33:22;;;;;;;5.88;1.38;;;2.30;91.20;;;;;;4991126;28;20026;-52
2024/01/04 07:35:49;;;;;;;8.57;1.77;;;2.20;91.10;;;;;;4990816;28;20068;-50
2024/01/04 07:38:18;;;;;;;5.72;1.40;;;2.20;91.30;;;;;;5031245;28;20058;-48
2024/01/04 07:40:44;;;;;;;7.32;1.55;;;2.20;91.70;;;;;;5104822;28;20330;-51
2024/01/04 07:43:11;;;;;;;8.40;1.23;;;2.20;91.80;;;;;;4990933;28;20087;-52
2024/01/04 07:45:38;;;;;;;8.43;1.35;;;2.10;91.70;;;;;;4991101;28;20427;-53
2024/01/04 07:48:05;;;;;;;3.67;1.08;;;2.10;91.80;;;;;;4990819;28;20052;-53
2024/01/04 07:50:32;;;;;;;6.60;1.67;;;2.00;92.00;;;;;;4990586;28;20471;-49
2024/01/04 07:53:00;;;;;;;3.78;0.90;;;2.10;92.30;;;;;;4990584;28;20137;-50
2024/01/04 07:55:29;;;;;;;2.65;1.23;;;2.10;92.50;;;;;;4990601;28;20026;-50
2024/01/04 07:57:56;;;;;;;4.38;1.42;;;2.10;92.40;;;;;;4990530;28;20030;-49
2024/01/04 08:00:22;;;;;;;8.02;1.70;;;2.20;92.50;;;;;;5005713;28;20044;-49
2024/01/04 08:02:49;;;;;;;3.75;1.40;;;2.20;92.40;;;;;;5010001;28;20026;-47
2024/01/04 08:05:15;;;;;;;6.03;1.30;;;2.20;92.40;;;;;;4989082;28;20117;-47
2024/01/04 08:07:45;;;;;;;5.20;0.98;;;2.20;92.30;;;;;;4991071;28;20052;-47
2024/01/04 08:10:14;;;;;;;3.78;1.23;;;2.20;92.10;;;;;;4990921;28;20073;-46
2024/01/04 08:12:41;;;;;;;4.25;1.23;;;2.20;91.90;;;;;;4991083;28;20046;-46
2024/01/04 08:15:08;;;;;;;8.45;1.33;;;2.20;92.20;;;;;;4990172;28;20030;-46
2024/01/04 08:17:35;;;;;;;4.53;1.25;;;2.20;91.90;;;;;;4990778;28;20029;-51
2024/01/04 08:20:03;;;;;;;4.25;1.23;;;2.20;91.80;;;;;;5001904;28;20121;-49
2024/01/04 08:22:30;;;;;;;2.95;1.17;;;2.20;91.70;;;;;;5010365;28;20022;-45
2024/01/04 08:24:57;;;;;;;5.68;1.30;;;2.20;91.50;;;;;;4995457;28;20352;-47
2024/01/04 08:27:25;;;;;;;3.75;1.20;;;2.20;91.40;;;;;;4989301;28;20035;-45
2024/01/04 08:29:53;;;;;;;3.80;1.20;;;2.20;91.30;;;;;;4988965;28;20125;-46
2024/01/04 08:32:21;;;;;;;3.00;1.35;;;2.20;91.40;;;;;;4990349;28;20027;-46
2024/01/04 08:34:48;;;;;;;4.28;1.55;;;2.20;91.30;;;;;;4989987;28;20080;-48
2024/01/04 08:37:18;;;;;;;3.85;1.55;;;2.20;91.20;;;;;;4990084;28;20050;-49
2024/01/04 08:39:45;;;;;;;2.13;0.90;;;2.20;91.20;;;;;;5107079;28;20019;-46
2024/01/04 08:42:12;;;;;;;4.13;1.15;;;2.20;91.10;;;;;;5113188;28;20047;-50
2024/01/04 08:44:41;;;;;;;4.63;1.30;;;2.20;91.00;;;;;;5088174;27;20033;-50
2024/01/04 08:47:07;;;;;;;6.63;1.35;;;2.20;91.00;;;;;;4990361;28;20455;-52
2024/01/04 08:49:33;;;;;;;3.33;1.17;;;2.20;91.00;;;;;;4990267;28;20027;-52
2024/01/04 08:52:00;;;;;;;6.70;1.88;;;2.20;91.20;;;;;;4998770;28;20457;-49
2024/01/04 08:54:28;;;;;;;8.30;1.48;;;2.20;91.30;;;;;;5009987;28;20104;-48
2024/01/04 08:56:56;;;;;;;4.90;1.35;;;2.30;91.30;;;;;;5005261;28;20022;-50
2024/01/04 08:59:27;;;;;;;3.72;1.05;;;2.30;91.20;;;;;;4990148;28;20045;-48
2024/01/04 09:01:59;;;;;;;4.95;1.33;;;2.40;91.20;;;;;;4997894;28;20024;-49
2024/01/04 09:04:26;;;;;;;3.65;1.38;;;2.30;90.90;;;;;;5009676;28;20033;-49
2024/01/04 09:06:56;;;;;;;3.58;1.88;;;2.40;90.80;;;;;;4989598;28;20030;-46
2024/01/04 09:09:22;;;;;;;3.20;1.50;;;2.40;90.50;;;;;;4989908;28;20030;-49
2024/01/04 09:11:50;;;;;;;7.30;1.88;;;2.40;90.40;;;;;;4990151;28;20035;-46
2024/01/04 09:14:17;;;;;;;3.75;1.90;;;2.40;90.10;;;;;;4990222;28;20027;-46
2024/01/04 09:16:44;;;;;;;4.78;2.15;;;2.40;89.80;;;;;;4989960;28;20037;-44
2024/01/04 09:19:17;;;;;;;3.63;1.88;;;2.50;89.90;;;;;;4990047;28;20525;-48
2024/01/04 09:21:49;;;;;;;5.05;1.75;;;2.60;89.50;;;;;;4988980;28;20030;-47
2024/01/04 09:24:18;;;;;;;5.38;1.10;;;2.70;89.40;;;;;;4989934;28;20022;-47
2024/01/04 09:26:46;;;;;;;5.07;1.60;;;2.70;89.10;;;;;;4989567;28;20118;-48
2024/01/04 09:29:15;;;;;;;5.15;1.92;;;2.70;89.00;;;;;;4990080;28;20022;-45
2024/01/04 09:31:41;;;;;;;3.95;1.27;;;2.70;88.70;;;;;;4989886;28;20042;-46
2024/01/04 09:34:08;;;;;;;3.17;1.00;;;2.70;88.40;;;;;;4989807;28;20100;-48
2024/01/04 09:36:35;;;;;;;2.47;1.13;;;2.70;88.50;;;;;;5001727;28;20113;-49
2024/01/04 09:39:04;;;;;;;3.38;1.17;;;2.70;88.40;;;;;;5073753;28;20460;-47
2024/01/04 09:41:35;;;;;;;4.53;1.23;;;2.70;88.40;;;;;;4989124;28;20123;-47
2024/01/04 09:44:04;;;;;;;6.65;1.90;;;2.70;88.80;;;;;;4989460;28;20034;-45
2024/01/04 09:46:39;;;;;;;2.70;1.20;;;2.80;89.40;;;;;;4989630;28;20098;-47
2024/01/04 09:49:09;;;;;;;8.77;1.42;;;2.70;89.70;;;;;;4989448;28;20022;-45
2024/01/04 09:51:38;;;;;;;7.15;3.25;;;2.70;89.90;;;;;;4989712;28;20014;-46
2024/01/04 09:54:09;;;;;;;6.78;2.05;;;2.70;90.50;;;;;;4989505;28;20421;-45
2024/01/04 09:56:49;;;;;;;4.15;1.75;;;2.60;90.70;;;;;;4989304;28;20042;-47
2024/01/04 09:59:16;;;;;;;4.22;1.00;;;2.70;91.00;;;;;;4989579;28;20148;-47
2024/01/04 10:01:43;;;;;;;6.30;1.15;;;2.70;91.20;;;;;;4989640;28;20061;-48
2024/01/04 10:04:27;;;;;;;4.35;1.50;;;2.80;91.30;;;;;;5005803;28;20335;-47
2024/01/04 10:06:59;;;;;;;4.28;1.30;;;2.80;91.10;;;;;;5008229;28;20022;-46
2024/01/04 10:09:49;;;;;;;1.95;0.95;;;2.80;90.90;;;;;;4997882;28;20037;-51
2024/01/04 10:12:16;;;;;;;2.30;1.05;;;2.80;90.80;;;;;;4989794;28;20395;-47
2024/01/04 10:14:43;;;;;;;3.35;1.05;;;2.90;90.80;;;;;;4989503;28;20023;-48
2024/01/04 10:17:12;;;;;;;2.00;1.02;;;2.90;90.50;;;;;;4989353;28;20087;-47
2024/01/04 10:19:40;;;;;;;2.33;0.90;;;2.90;90.00;;;;;;4991742;28;20026;-51
2024/01/04 10:22:07;;;;;;;4.03;1.10;;;2.90;89.60;;;;;;4992443;28;20039;-55
2024/01/04 10:24:37;;;;;;;2.45;1.00;;;2.80;89.60;;;;;;5008937;28;20033;-54
2024/01/04 10:27:05;;;;;;;3.90;1.52;;;2.80;90.10;;;;;;5012031;28;20112;-56
2024/01/04 10:29:38;;;;;;;2.80;1.17;;;2.70;89.80;;;;;;5000903;28;20034;-52
2024/01/04 10:32:12;;;;;;;3.70;1.67;;;2.80;90.30;;;;;;4991419;28;20029;-53
2024/01/04 10:34:44;;;;;;;5.32;1.25;;;2.90;90.50;;;;;;4992631;28;20031;-49
2024/01/04 10:37:17;;;;;;;7.03;1.65;;;2.90;90.40;;;;;;4992303;28;20057;-50
2024/01/04 10:39:57;;;;;;;3.33;0.93;;;3.00;90.30;;;;;;5107330;28;20020;-49
2024/01/04 10:42:22;;;;;;;;;;;3.00;90.00;;;;;;5115046;28;20516;-48
2024/01/04 10:44:59;;;;;;;4.22;0.98;;;3.00;89.80;;;;;;5050852;28;19925;-49
2024/01/04 10:47:29;;;;;;;4.05;1.02;;;3.00;89.50;;;;;;4992268;28;20046;-49
2024/01/04 10:49:59;;;;;;;3.85;1.55;;;3.00;89.30;;;;;;4992280;28;20031;-47
2024/01/04 10:52:32;;;;;;;2.78;1.08;;;3.00;89.10;;;;;;4991896;28;20113;-48
2024/01/04 10:54:59;;;;;;;4.38;1.00;;;3.10;89.30;;;;;;4992443;28;20022;-45
2024/01/04 10:57:36;;;;;;;2.97;1.75;;;3.20;89.20;;;;;;4992169;28;20032;-45
2024/01/04 11:00:07;;;;;;;3.70;0.90;;;3.30;88.90;;;;;;4992386;28;20034;-44
2024/01/04 11:02:37;;;;;;;3.78;1.02;;;3.20;87.80;;;;;;4991978;28;20026;-45
2024/01/04 11:05:05;;;;;;;3.67;0.80;;;3.20;87.90;;;;;;4992268;28;20049;-46
2024/01/04 11:07:34;;;;;;;7.68;1.23;;;3.10;87.70;;;;;;4991964;28;20117;-47
2024/01/04 11:10:01;;;;;;;3.83;1.15;;;3.10;87.40;;;;;;4991978;28;20038;-45
2024/01/04 11:12:29;;;;;;;4.05;1.40;;;3.00;87.30;;;;;;4991958;28;20020;-48
2024/01/04 11:14:59;;;;;;;15.82;5.22;;;2.90;87.70;;;;;;4992558;28;20026;-47
2024/01/04 11:17:46;;;;;;;8.43;1.17;;;2.80;87.70;;;;;;4992075;28;20034;-47
2024/01/04 11:20:46;;;;;;;4.05;1.10;;;2.90;88.40;;;;;;4991224;28;20049;-45
2024/01/04 11:23:42;;;;;;;5.32;0.90;;;2.90;88.30;;;;;;4991542;28;20038;-49
2024/01/04 11:26:27;;;;;;;4.57;1.13;;;2.80;88.20;;;;;;4990885;28;20316;-47
2024/01/04 11:28:56;;;;;;;4.13;1.42;;;2.90;88.50;;;;;;4991340;28;20027;-48
2024/01/04 11:31:26;;;;;;;4.60;1.33;;;2.90;88.50;;;;;;4991800;28;20110;-48
2024/01/04 11:33:54;;;;;;;2.65;1.27;;;2.90;88.70;;;;;;4991690;28;20045;-46
2024/01/04 11:36:21;;;;;;;4.10;0.95;;;2.90;88.20;;;;;;4991551;28;20070;-46
2024/01/04 11:38:50;;;;;;;3.50;1.20;;;2.90;87.80;;;;;;5055195;28;20016;-47
2024/01/04 11:41:17;;;;;;;3.38;1.02;;;2.80;87.50;;;;;;4991341;28;20480;-45
2024/01/04 11:43:48;;;;;;;4.32;1.50;;;2.90;87.70;;;;;;4991467;28;20522;-46
2024/01/04 11:46:18;;;;;;;2.17;0.80;;;3.00;87.70;;;;;;4991309;28;20035;-49
2024/01/04 11:49:07;;;;;;;3.78;1.30;;;3.00;87.40;;;;;;4991494;28;20105;-46
2024/01/04 11:51:47;;;;;;;3.78;1.08;;;3.00;87.10;;;;;;4991374;28;20026;-46
2024/01/04 11:54:20;;;;;;;5.43;1.55;;;3.00;87.10;;;;;;4991542;28;20062;-46
2024/01/04 11:56:47;;;;;;;4.07;1.45;;;2.90;87.70;;;;;;4991412;28;20029;-45
2024/01/04 11:59:15;;;;;;;5.40;1.10;;;2.90;87.90;;;;;;4991444;28;20035;-46
2024/01/04 12:01:43;;;;;;;4.60;1.20;;;2.90;88.20;;;;;;4991293;28;20038;-46
2024/01/04 12:04:17;;;;;;;6.00;1.33;;;2.90;87.90;;;;;;4991098;28;20080;-50
2024/01/04 12:06:45;;;;;;;3.63;0.85;;;2.90;88.10;;;;;;4991124;28;20027;-47
2024/01/04 12:09:18;;;;;;;3.53;1.05;;;2.80;88.50;;;;;;4990892;28;20109;-49
2024/01/04 12:11:55;;;;;;;4.50;1.25;;;2.80;88.60;;;;;;4990962;28;20026;-46
2024/01/04 12:14:22;;;;;;;2.20;1.10;;;2.80;88.30;;;;;;4991052;28;20045;-49
2024/01/04 12:16:48;;;;;;;5.10;1.42;;;2.90;88.10;;;;;;4991251;28;20109;-48
2024/01/04 12:19:15;;;;;;;4.25;1.10;;;2.90;88.30;;;;;;4991702;28;20030;-44
2024/01/04 12:21:42;;;;;;;4.95;1.80;;;3.00;88.00;;;;;;5010205;28;20045;-45
2024/01/04 12:24:09;;;;;;;7.65;1.60;;;2.90;87.70;;;;;;5010542;28;20022;-49
2024/01/04 12:26:35;;;;;;;3.83;1.73;;;2.90;87.20;;;;;;5010579;28;20014;-45
2024/01/04 12:29:04;;;;;;;5.40;1.70;;;2.90;87.10;;;;;;5006690;28;20034;-46
2024/01/04 12:31:31;;;;;;;2.72;1.65;;;2.90;87.30;;;;;;4990713;28;20133;-45
2024/01/04 12:33:59;;;;;;;4.75;2.05;;;2.90;86.50;;;;;;4990888;28;20026;-44
2024/01/04 12:36:30;;;;;;;6.63;2.42;;;3.00;87.00;;;;;;4990967;28;20068;-44
2024/01/04 12:39:13;;;;;;;2.55;1.65;;;3.00;87.20;;;;;;5009213;28;20054;-45
2024/01/04 12:41:44;;;;;;;5.35;2.50;;;2.90;86.90;;;;;;4989162;28;20050;-47
2024/01/04 12:44:13;;;;;;;5.45;1.90;;;2.90;87.00;;;;;;4989634;28;20513;-43
2024/01/04 12:46:44;;;;;;;2.42;0.95;;;2.90;87.20;;;;;;4990659;28;20035;-44
2024/01/04 12:49:11;;;;;;;2.83;1.13;;;2.90;87.30;;;;;;4990186;28;20098;-44
2024/01/04 12:51:42;;;;;;;4.15;1.33;;;2.90;87.50;;;;;;4989113;28;20029;-46
2024/01/04 12:54:11;;;;;;;3.63;1.33;;;2.90;87.60;;;;;;4990318;28;20498;-44
2024/01/04 12:56:38;;;;;;;1.75;1.02;;;2.90;87.10;;;;;;4990217;28;20625;-45
2024/01/04 12:59:05;;;;;;;1.90;0.80;;;2.90;87.00;;;;;;4990293;28;20065;-47
2024/01/04 13:01:31;;;;;;;1.65;0.80;;;2.90;87.30;;;;;;4990379;28;20038;-45
2024/01/04 13:03:59;;;;;;;6.38;1.20;;;2.80;87.30;;;;;;4990100;28;20034;-47